Hovedside
METAR-TAF:

METAR-TAF

Lufthavner :

Dala lufthavn

Borlänge, Sverige

breddegrad: 60-26N, lengdegrad: 015-31E, høyde over havet: 145 m

Gjeldene værobservasjon

Denne rapporten ble laget for 22 minutter siden, klokken 03:20 UTC
Vind 6 kt fra Sør
Temperatur 15°C
Luftfuktighet 94%
Trykk 1003 hPa
Sikt 10 km eller mer

METAR: ESSD 180320Z AUTO 18006KT 9999 FEW016/// BKN094/// 15/14 Q1003

Tid: 05:42 (03:42 UTC)


TAF: fraværende

Værobservasjoner og værvarsel for over 4000 flyplasser (METAR- og TAF-rapporter).

Tilgjengelige stasjoner er representert av de røde og gule prikkene på kartet.

Hold musepekeren over prikken for å se navnet på stasjonen.

Klikk så for å se værobservasjoner og -varsler.

For å forandre kartet kan du klikke på den grønne knappen med svart kryss for å zoome inn, på den grønne knappen med strek for å zoome ut, eller på de grønne pilene for å se tilstøtende kart.


METAR-TAF: